Time;durP1;ratioP1;P1;durP2;ratioP2;P2;SDS_P1;SDS_P2;PMS_P1;PMS_P2;Temp;Humidity;BMP_temperature;BMP_pressure;BME280_temperature;BME280_humidity;BME280_pressure;Samples;Min_cycle;Max_cycle;Signal;HPM_P1;HPM_P2
2023/04/16 00:08:50;;;;;;;;;;;;;;;;;;;;;
2023/04/16 01:31:53;;;;;;;;;;;;;;;;;;;;;
2023/04/16 05:13:04;;;;;;;;;;;;;;;;;;;;;
2023/04/16 05:16:07;;;;;;;;;;;;;;;;;;4897344;29;19929;-89
2023/04/16 05:29:02;;;;;;;;;;;;;;;;;;4913695;29;20304;-91
2023/04/16 05:31:55;;;;;;;;;;;;;;;;;;4857147;29;19923;-90
2023/04/16 06:16:19;;;;;;;;;;;;;;;;;;4972881;28;19952;-90
2023/04/16 06:18:55;;;;;;;;;;;;;;;;;;4965756;28;19936;-87
2023/04/16 06:28:27;;;;;;;;;;;;;;;;;;4942294;28;19922;-89
2023/04/16 06:30:59;;;;;;;;;;;;;;;;;;4972555;28;20354;-91
2023/04/16 06:33:38;;;;;;;;;;;;;;;;;;;;;
2023/04/16 06:40:09;;;;;;;;;;;;;;;;;;;;;
2023/04/16 06:42:52;;;;;;;;;;;;;;;;;;5079932;28;19912;-91
2023/04/16 06:48:58;;;;;;;;;;;;;;;;;;4972734;28;19925;-89
2023/04/16 06:58:40;;;;;;;;;;;;;;;;;;4985104;28;20802;-89
2023/04/16 07:01:26;;;;;;;;;;;;;;;;;;4978733;28;19930;-91
2023/04/16 07:07:28;;;;;;;;;;;;;;;;;;5017652;28;20474;-90
2023/04/16 07:16:29;;;;;;;;;;;;;;;;;;5008690;28;19940;-91
2023/04/16 07:19:41;;;;;;;;;;;;;;;;;;5001514;28;19987;-90
2023/04/16 07:54:54;;;;;;;;;;;;;;;;;;;;;
2023/04/16 08:05:03;;;;;;;;;;;;;;;;;;4924054;29;20034;-92
2023/04/16 08:14:52;;;;;;;;;;;;;;;;;;;;;
2023/04/16 08:27:51;;;;;;;;;;;;;;;;;;4889621;29;19930;-91
2023/04/16 08:30:28;;;;;;;;;;;;;;;;;;4901940;29;19915;-91
2023/04/16 09:02:24;;;;;;;;;;;;;;;;;;5054565;28;19963;-87
2023/04/16 09:04:52;;;;;;;;;;;;;;;;;;5044737;28;19963;-88
2023/04/16 09:14:15;;;;;;;;;;;;;;;;;;;;;
2023/04/16 09:23:09;;;;;;;;;;;;;;;;;;5028170;28;20059;-89
2023/04/16 09:32:10;;;;;;;;;;;;;;;;;;5058635;28;19919;-90
2023/04/16 09:41:38;;;;;;;;;;;;;;;;;;5004510;28;19924;-91
2023/04/16 09:44:22;;;;;;;;;;;;;;;;;;;;;
2023/04/16 09:50:31;;;;;;;;;;;;;;;;;;;;;
2023/04/16 09:53:34;;;;;;;;;;;;;;;;;;5046972;28;19919;-91
2023/04/16 09:56:00;;;;;;;;;;;;;;;;;;5029295;28;20100;-90
2023/04/16 09:58:29;;;;;;;;;;;;;;;;;;5030113;28;20199;-91
2023/04/16 10:01:02;;;;;;;;;;;;;;;;;;5014472;28;19932;-88
2023/04/16 10:03:28;;;;;;;;;;;;;;;;;;5027516;28;19920;-89
2023/04/16 10:09:55;;;;;;;;;;;;;;;;;;;;;
2023/04/16 10:12:12;;;;;;;;;;;;;;;;;;5067321;28;20242;-91
2023/04/16 10:17:29;;;;;;;;;;;;;;;;;;5069590;28;20480;-89
2023/04/16 10:20:00;;;;;;;;;;;;;;;;;;5053474;28;21548;-89
2023/04/16 10:22:33;;;;;;;;;;;;;;;;;;5055240;28;19912;-90
2023/04/16 10:25:16;;;;;;;;;;;;;;;;;;5056175;28;19984;-88
2023/04/16 10:28:01;;;;;;;;;;;;;;;;;;5070427;28;19920;-91
2023/04/16 10:31:03;;;;;;;;;;;;;;;;;;5071861;28;19912;-90
2023/04/16 10:33:28;;;;;;;;;;;;;;;;;;5063109;28;19913;-91
2023/04/16 10:36:00;;;;;;;;;;;;;;;;;;5051108;28;19950;-89
2023/04/16 10:38:25;;;;;;;;;;;;;;;;;;5079826;28;19912;-91
2023/04/16 10:40:58;;;;;;;;;;;;;;;;;;5103534;28;19931;-88
2023/04/16 10:43:28;;;;;;;;;;;;;;;;;;5094297;28;19912;-88
2023/04/16 10:46:03;;;;;;;;;;;;;;;;;;5053878;28;19920;-91
2023/04/16 10:48:38;;;;;;;;;;;;;;;;;;5092454;28;19957;-90
2023/04/16 10:51:21;;;;;;;;;;;;;;;;;;5061764;28;20205;-90
2023/04/16 10:56:41;;;;;;;;;;;;;;;;;;5056714;28;20288;-92
2023/04/16 10:59:27;;;;;;;;;;;;;;;;;;5068414;28;19912;-90
2023/04/16 11:02:06;;;;;;;;;;;;;;;;;;5056465;28;20003;-90
2023/04/16 11:04:54;;;;;;;;;;;;;;;;;;5082535;28;19916;-88
2023/04/16 11:07:40;;;;;;;;;;;;;;;;;;5050220;28;19920;-92
2023/04/16 11:19:43;;;;;;;;;;;;;;;;;;;;;
2023/04/16 11:22:26;;;;;;;;;;;;;;;;;;5056662;28;20274;-88
2023/04/16 11:28:25;;;;;;;;;;;;;;;;;;5060242;28;19936;-89
2023/04/16 11:34:12;;;;;;;;;;;;;;;;;;4979743;28;19914;-89
2023/04/16 11:36:51;;;;;;;;;;;;;;;;;;4962186;28;19918;-91
2023/04/16 11:42:53;;;;;;;;;;;;;;;;;;4864416;29;19999;-89
2023/04/16 11:45:27;;;;;;;;;;;;;;;;;;4885123;29;19916;-91
2023/04/16 11:51:26;;;;;;;;;;;;;;;;;;4901725;29;19940;-90
2023/04/16 11:54:03;;;;;;;;;;;;;;;;;;4921545;28;19915;-90
2023/04/16 11:57:05;;;;;;;;;;;;;;;;;;;;;
2023/04/16 11:59:51;;;;;;;;;;;;;;;;;;5075112;28;19913;-90
2023/04/16 12:02:25;;;;;;;;;;;;;;;;;;5053462;28;19970;-92
2023/04/16 12:05:03;;;;;;;;;;;;;;;;;;5061333;28;19999;-91
2023/04/16 12:07:37;;;;;;;;;;;;;;;;;;5057145;28;19923;-90
2023/04/16 12:10:15;;;;;;;;;;;;;;;;;;5062279;28;20809;-88
2023/04/16 12:12:41;;;;;;;;;;;;;;;;;;5057628;28;19963;-90
2023/04/16 12:18:31;;;;;;;;;;;;;;;;;;5070805;28;19947;-92
2023/04/16 12:20:56;;;;;;;;;;;;;;;;;;5051862;28;20001;-89
2023/04/16 12:23:42;;;;;;;;;;;;;;;;;;5041531;28;20038;-89
2023/04/16 12:26:09;;;;;;;;;;;;;;;;;;5050336;28;19921;-89
2023/04/16 12:28:42;;;;;;;;;;;;;;;;;;5050055;28;20019;-89
2023/04/16 12:40:05;;;;;;;;;;;;;;;;;;4976242;28;19953;-89
2023/04/16 12:42:59;;;;;;;;;;;;;;;;;;5039431;28;20361;-91
2023/04/16 12:45:31;;;;;;;;;;;;;;;;;;5072971;28;19920;-89
2023/04/16 12:50:56;;;;;;;;;;;;;;;;;;5080811;28;20015;-91
2023/04/16 12:53:32;;;;;;;;;;;;;;;;;;5082467;28;19912;-89
2023/04/16 12:56:30;;;;;;;;;;;;;;;;;;5095925;28;19916;-91
2023/04/16 12:59:08;;;;;;;;;;;;;;;;;;;;;
2023/04/16 13:02:15;;;;;;;;;;;;;;;;;;5032403;28;19921;-91
2023/04/16 13:04:50;;;;;;;;;;;;;;;;;;5029453;28;20007;-90
2023/04/16 13:10:20;;;;;;;;;;;;;;;;;;5014106;28;19924;-90
2023/04/16 13:12:47;;;;;;;;;;;;;;;;;;5028102;28;19913;-91
2023/04/16 13:15:18;;;;;;;;;;;;;;;;;;5022566;28;19919;-92
2023/04/16 13:17:57;;;;;;;;;;;;;;;;;;5064084;28;19985;-88
2023/04/16 13:21:03;;;;;;;;;;;;;;;;;;5075023;28;20247;-89
2023/04/16 13:23:17;;;;;;;;;;;;;;;;;;5064377;28;19912;-89
2023/04/16 13:25:46;;;;;;;;;;;;;;;;;;5058362;28;20007;-88
2023/04/16 13:31:02;;;;;;;;;;;;;;;;;;5075684;28;20045;-89
2023/04/16 13:33:33;;;;;;;;;;;;;;;;;;5061086;28;19919;-89
2023/04/16 13:35:59;;;;;;;;;;;;;;;;;;5057137;28;19935;-92
2023/04/16 13:38:27;;;;;;;;;;;;;;;;;;5060139;28;19972;-89
2023/04/16 13:41:16;;;;;;;;;;;;;;;;;;5073784;28;20409;-93
2023/04/16 13:43:42;;;;;;;;;;;;;;;;;;5058249;28;19995;-88
2023/04/16 13:49:20;;;;;;;;;;;;;;;;;;5087743;28;19982;-92
2023/04/16 13:54:43;;;;;;;;;;;;;;;;;;5061413;28;20352;-89
2023/04/16 13:57:29;;;;;;;;;;;;;;;;;;5059106;28;19924;-90
2023/04/16 14:00:10;;;;;;;;;;;;;;;;;;5086538;28;20376;-92
2023/04/16 14:02:56;;;;;;;;;;;;;;;;;;5057063;28;19923;-89
2023/04/16 14:05:57;;;;;;;;;;;;;;;;;;5077866;28;20002;-90
2023/04/16 14:08:42;;;;;;;;;;;;;;;;;;5079252;28;19920;-88
2023/04/16 14:11:22;;;;;;;;;;;;;;;;;;5060573;28;19912;-90
2023/04/16 14:14:15;;;;;;;;;;;;;;;;;;5083134;28;19985;-90
2023/04/16 14:17:10;;;;;;;;;;;;;;;;;;;;;
2023/04/16 14:19:49;;;;;;;;;;;;;;;;;;;;;
2023/04/16 14:22:42;;;;;;;;;;;;;;;;;;;;;
2023/04/16 14:25:13;;;;;;;;;;;;;;;;;;5032852;28;20014;-92
2023/04/16 14:27:41;;;;;;;;;;;;;;;;;;5020858;28;19972;-90
2023/04/16 14:30:28;;;;;;;;;;;;;;;;;;5015360;28;19920;-90
2023/04/16 14:33:08;;;;;;;;;;;;;;;;;;5014437;28;19921;-89
2023/04/16 14:35:34;;;;;;;;;;;;;;;;;;5029484;28;20471;-90
2023/04/16 14:38:04;;;;;;;;;;;;;;;;;;4999089;28;20071;-88
2023/04/16 14:46:46;;;;;;;;;;;;;;;;;;5003600;28;19917;-90
2023/04/16 14:49:34;;;;;;;;;;;;;;;;;;5076113;28;19920;-91
2023/04/16 14:55:27;;;;;;;;;;;;;;;;;;5063273;28;19912;-90
2023/04/16 14:58:16;;;;;;;;;;;;;;;;;;5065353;28;20353;-88
2023/04/16 15:04:13;;;;;;;;;;;;;;;;;;5066959;28;19913;-90
2023/04/16 15:10:15;;;;;;;;;;;;;;;;;;5022728;28;19960;-90
2023/04/16 15:13:03;;;;;;;;;;;;;;;;;;4991606;28;19932;-90
2023/04/16 15:15:45;;;;;;;;;;;;;;;;;;;;;
2023/04/16 15:18:44;;;;;;;;;;;;;;;;;;5080153;28;20462;-91
2023/04/16 15:21:46;;;;;;;;;;;;;;;;;;5067039;28;19923;-90
2023/04/16 15:24:37;;;;;;;;;;;;;;;;;;5056016;28;19917;-90
2023/04/16 15:27:14;;;;;;;;;;;;;;;;;;5038035;28;19920;-89
2023/04/16 15:29:52;;;;;;;;;;;;;;;;;;5042775;28;19984;-88
2023/04/16 15:35:41;;;;;;;;;;;;;;;;;;5085659;28;19979;-88
2023/04/16 15:38:10;;;;;;;;;;;;;;;;;;5046730;28;19931;-89
2023/04/16 15:43:35;;;;;;;;;;;;;;;;;;5065407;28;19912;-90
2023/04/16 15:46:04;;;;;;;;;;;;;;;;;;5049976;28;19944;-90
2023/04/16 15:48:32;;;;;;;;;;;;;;;;;;5046303;28;19913;-90
2023/04/16 15:51:17;;;;;;;;;;;;;;;;;;5049552;28;19948;-87
2023/04/16 15:54:19;;;;;;;;;;;;;;;;;;5031479;28;19916;-90
2023/04/16 15:56:55;;;;;;;;;;;;;;;;;;5067711;28;19926;-89
2023/04/16 16:09:58;;;;;;;;;;;;;;;;;;5009656;28;20004;-87
2023/04/16 16:12:45;;;;;;;;;;;;;;;;;;5036847;28;19931;-89
2023/04/16 16:15:13;;;;;;;;;;;;;;;;;;5039909;28;19917;-88
2023/04/16 16:20:58;;;;;;;;;;;;;;;;;;;;;
2023/04/16 16:23:44;;;;;;;;;;;;;;;;;;5055049;28;20017;-91
2023/04/16 16:26:26;;;;;;;;;;;;;;;;;;5058357;28;19924;-90
2023/04/16 16:28:55;;;;;;;;;;;;;;;;;;5055318;28;20007;-92
2023/04/16 16:31:21;;;;;;;;;;;;;;;;;;5036747;28;19924;-89
2023/04/16 16:33:46;;;;;;;;;;;;;;;;;;5062572;28;19916;-89
2023/04/16 16:36:11;;;;;;;;;;;;;;;;;;5055197;28;19917;-87
2023/04/16 16:38:38;;;;;;;;;;;;;;;;;;5056925;28;20340;-89
2023/04/16 16:41:04;;;;;;;;;;;;;;;;;;5043416;28;20357;-90
2023/04/16 16:43:32;;;;;;;;;;;;;;;;;;5069619;28;19920;-90
2023/04/16 16:45:58;;;;;;;;;;;;;;;;;;5080249;28;19912;-89
2023/04/16 16:48:24;;;;;;;;;;;;;;;;;;5060361;28;19930;-85
2023/04/16 16:50:51;;;;;;;;;;;;;;;;;;5050773;28;19947;-89
2023/04/16 16:53:16;;;;;;;;;;;;;;;;;;5049079;28;19920;-87
2023/04/16 16:55:51;;;;;;;;;;;;;;;;;;5040953;28;19948;-89
2023/04/16 16:58:21;;;;;;;;;;;;;;;;;;5055498;28;19912;-90
2023/04/16 17:00:46;;;;;;;;;;;;;;;;;;5040923;28;20038;-91
2023/04/16 17:03:12;;;;;;;;;;;;;;;;;;5071714;28;20345;-89
2023/04/16 17:05:40;;;;;;;;;;;;;;;;;;5052976;28;19917;-88
2023/04/16 17:08:06;;;;;;;;;;;;;;;;;;5051303;28;20009;-89
2023/04/16 17:10:33;;;;;;;;;;;;;;;;;;5053646;28;19920;-89
2023/04/16 17:12:58;;;;;;;;;;;;;;;;;;5038899;28;19912;-89
2023/04/16 17:15:27;;;;;;;;;;;;;;;;;;5043245;28;20528;-89
2023/04/16 17:17:55;;;;;;;;;;;;;;;;;;5063810;28;19928;-91
2023/04/16 17:20:26;;;;;;;;;;;;;;;;;;5050619;28;19927;-91
2023/04/16 17:22:52;;;;;;;;;;;;;;;;;;5049752;28;19908;-87
2023/04/16 17:25:17;;;;;;;;;;;;;;;;;;5044809;28;20631;-92
2023/04/16 17:27:53;;;;;;;;;;;;;;;;;;;;;
2023/04/16 17:30:26;;;;;;;;;;;;;;;;;;5060828;28;20040;-90
2023/04/16 17:32:52;;;;;;;;;;;;;;;;;;5083762;28;19947;-90
2023/04/16 17:35:17;;;;;;;;;;;;;;;;;;5066142;28;19912;-90
2023/04/16 17:37:42;;;;;;;;;;;;;;;;;;5039730;28;20339;-89
2023/04/16 17:40:08;;;;;;;;;;;;;;;;;;5042772;28;19921;-90
2023/04/16 17:42:52;;;;;;;;;;;;;;;;;;5057371;28;19964;-89
2023/04/16 17:45:26;;;;;;;;;;;;;;;;;;5040063;28;20002;-89
2023/04/16 17:47:54;;;;;;;;;;;;;;;;;;5054619;28;19916;-91
2023/04/16 17:50:36;;;;;;;;;;;;;;;;;;5034288;28;19940;-90
2023/04/16 17:53:10;;;;;;;;;;;;;;;;;;5038075;28;20369;-91
2023/04/16 17:55:39;;;;;;;;;;;;;;;;;;5038726;28;19913;-91
2023/04/16 18:01:41;;;;;;;;;;;;;;;;;;5071020;28;20078;-89
2023/04/16 18:07:34;;;;;;;;;;;;;;;;;;;;;
2023/04/16 18:10:30;;;;;;;;;;;;;;;;;;5027954;28;20148;-90
2023/04/16 18:13:08;;;;;;;;;;;;;;;;;;5056046;28;19936;-91
2023/04/16 18:16:31;;;;;;;;;;;;;;;;;;;;;
2023/04/16 18:44:31;;;;;;;;;;;;;;;;;;4872411;29;19939;-91
2023/04/16 19:04:08;;;;;;;;;;;;;;;;;;4904240;29;20316;-91
2023/04/16 19:10:36;;;;;;;;;;;;;;;;;;4934578;29;19933;-90
2023/04/16 19:13:46;;;;;;;;;;;;;;;;;;4930595;29;19978;-89
2023/04/16 19:23:20;;;;;;;;;;;;;;;;;;4930977;29;19927;-90
